Time;durP1;ratioP1;P1;durP2;ratioP2;P2;SDS_P1;SDS_P2;PMS_P1;PMS_P2;Temp;Humidity;BMP_temperature;BMP_pressure;BME280_temperature;BME280_humidity;BME280_pressure;Samples;Min_cycle;Max_cycle;Signal;HPM_P1;HPM_P2
2021/12/09 00:01:03;;;;;;;85.07;28.45;;;;;;;-3.93;92.50;98389.09;8417489;28;20036;-84
2021/12/09 00:05:06;;;;;;;73.72;25.70;;;;;;;-3.88;92.29;98378.66;8414962;28;20538;-84
2021/12/09 00:09:11;;;;;;;83.18;27.63;;;;;;;-3.77;91.88;98370.94;8418112;28;20051;-84
2021/12/09 00:13:13;;;;;;;70.57;25.10;;;;;;;-3.77;91.61;98370.94;8408467;28;20044;-87
2021/12/09 00:17:14;;;;;;;74.30;26.80;;;;;;;-3.77;91.55;98366.47;8412780;28;20096;-84
2021/12/09 00:21:15;;;;;;;78.38;26.75;;;;;;;-3.81;91.44;98369.81;8407699;28;20044;-81
2021/12/09 00:25:16;;;;;;;82.85;28.35;;;;;;;-3.83;91.81;98370.84;8414940;28;20051;-83
2021/12/09 00:29:18;;;;;;;65.63;23.20;;;;;;;-3.68;91.18;98369.53;8412436;28;20040;-86
2021/12/09 00:33:18;;;;;;;85.07;29.10;;;;;;;-3.71;91.46;98365.53;8414871;28;20538;-85
2021/12/09 00:41:46;;;;;;;92.80;30.05;;;;;;;-3.67;91.33;98344.75;8356093;28;20075;-85
2021/12/09 00:45:47;;;;;;;71.30;22.35;;;;;;;-3.53;90.64;98340.78;8356140;28;20536;-86
2021/12/09 00:49:49;;;;;;;94.13;31.17;;;;;;;-3.50;90.10;98330.56;8356658;28;20458;-86
2021/12/09 00:53:50;;;;;;;88.47;28.65;;;;;;;-3.52;90.46;98329.19;8335396;28;20061;-83
2021/12/09 00:57:50;;;;;;;87.25;28.75;;;;;;;-3.54;90.33;98328.59;8353644;28;20045;-82
2021/12/09 01:01:51;;;;;;;77.75;24.27;;;;;;;-3.49;90.66;98320.81;8338791;28;20076;-85
2021/12/09 01:05:54;;;;;;;84.68;28.42;;;;;;;-3.50;90.34;98301.53;8338918;28;20080;-88
2021/12/09 01:09:54;;;;;;;75.43;25.13;;;;;;;-3.46;90.25;98307.13;8353432;28;20041;-85
2021/12/09 01:13:55;;;;;;;85.50;27.17;;;;;;;-3.56;90.40;98305.13;8355591;28;20136;-86
2021/12/09 01:17:56;;;;;;;89.35;28.33;;;;;;;-3.49;90.09;98302.34;8389268;28;20127;-84
2021/12/09 01:21:57;;;;;;;80.78;29.08;;;;;;;-3.52;90.56;98308.06;8417705;28;20056;-86
2021/12/09 01:26:02;;;;;;;90.20;27.30;;;;;;;-3.51;90.33;98322.88;8412009;28;20381;-86
2021/12/09 01:30:09;;;;;;;86.72;28.60;;;;;;;-3.54;90.60;98308.28;8409553;28;20067;-87
2021/12/09 01:34:10;;;;;;;85.72;28.48;;;;;;;-3.46;90.09;98315.03;8402682;28;20102;-88
2021/12/09 01:38:13;;;;;;;82.85;27.48;;;;;;;-3.48;90.38;98322.38;8373814;28;20458;-85
2021/12/09 01:42:16;;;;;;;92.20;29.50;;;;;;;-3.41;90.15;98317.78;8415790;28;20059;-84
2021/12/09 01:46:20;;;;;;;83.00;28.98;;;;;;;-3.43;90.09;98314.56;8418286;28;20066;-85
2021/12/09 01:50:22;;;;;;;86.30;30.77;;;;;;;-3.51;90.50;98304.41;8415550;28;20391;-87
2021/12/09 01:54:24;;;;;;;82.70;27.05;;;;;;;-3.48;90.13;98311.81;8428005;28;20505;-87
2021/12/09 01:58:25;;;;;;;78.85;28.10;;;;;;;-3.54;90.53;98308.28;8409890;28;20045;-86
2021/12/09 02:02:26;;;;;;;85.93;29.20;;;;;;;-3.46;89.90;98325.59;8412033;28;20072;-88
2021/12/09 02:06:27;;;;;;;77.78;26.33;;;;;;;-3.41;89.97;98317.78;8425027;28;20051;-85
2021/12/09 02:10:28;;;;;;;81.13;28.45;;;;;;;-3.40;90.15;98335.22;8396734;28;20114;-85
2021/12/09 02:14:29;;;;;;;77.35;28.50;;;;;;;-3.48;90.07;98338.22;8412268;28;20056;-86
2021/12/09 02:18:30;;;;;;;80.28;26.55;;;;;;;-3.54;90.64;98352.38;8433471;28;20674;-86
2021/12/09 02:22:31;;;;;;;89.43;28.23;;;;;;;-3.58;90.77;98348.59;8423517;28;20052;-88
2021/12/09 02:26:38;;;;;;;89.90;30.00;;;;;;;-3.45;90.52;98348.31;8422937;28;20039;-85
2021/12/09 02:30:39;;;;;;;83.03;28.52;;;;;;;-3.45;90.22;98348.31;8418873;28;20062;-83
2021/12/09 02:34:40;;;;;;;76.43;26.88;;;;;;;-3.42;90.16;98353.13;8405499;28;20127;-84
2021/12/09 02:38:44;;;;;;;80.70;27.98;;;;;;;-3.38;90.31;98354.25;8422228;28;20068;-86
2021/12/09 02:42:45;;;;;;;82.40;28.27;;;;;;;-3.39;90.58;98357.94;8433953;28;20074;-88
2021/12/09 02:46:51;;;;;;;85.95;29.17;;;;;;;-3.35;90.03;98359.06;8432805;28;20051;-88
2021/12/09 02:50:53;;;;;;;73.85;26.80;;;;;;;-3.41;90.39;98367.94;8430402;28;20052;-86
2021/12/09 02:54:54;;;;;;;80.35;27.48;;;;;;;-3.36;90.51;98367.22;8431273;28;20617;-83
2021/12/09 02:58:55;;;;;;;76.47;26.33;;;;;;;-3.27;89.93;98371.88;8432193;28;20056;-85
2021/12/09 03:02:58;;;;;;;86.85;27.85;;;;;;;-3.21;89.55;98364.84;8412662;28;20083;-84
2021/12/09 03:06:58;;;;;;;83.40;26.60;;;;;;;-3.26;90.10;98373.47;8430983;28;20481;-85
2021/12/09 03:11:21;;;;;;;84.60;27.73;;;;;;;-3.35;90.00;98369.63;8431660;28;20036;-84
2021/12/09 03:15:22;;;;;;;79.90;27.92;;;;;;;-3.30;90.10;98351.22;8379468;28;20135;-84
2021/12/09 03:19:23;;;;;;;85.85;28.33;;;;;;;-3.32;90.30;98350.66;8387707;28;20482;-84
2021/12/09 03:23:26;;;;;;;90.10;29.23;;;;;;;-3.26;89.96;98362.91;8413173;28;20089;-84
2021/12/09 03:27:27;;;;;;;83.63;28.40;;;;;;;-3.29;90.24;98363.41;8429764;28;20055;-84
2021/12/09 03:31:28;;;;;;;85.95;28.55;;;;;;;-3.31;90.21;98339.06;8427706;28;20548;-83
2021/12/09 03:35:29;;;;;;;85.25;30.05;;;;;;;-3.22;90.15;98348.19;8431368;28;20055;-84
2021/12/09 03:39:34;;;;;;;94.07;31.77;;;;;;;-3.14;89.77;98345.16;8430109;28;20083;-84
2021/12/09 03:43:35;;;;;;;105.53;34.38;;;;;;;-3.12;89.93;98342.31;8428844;28;20052;-84
2021/12/09 03:47:37;;;;;;;106.78;33.15;;;;;;;-3.10;89.99;98335.72;8430365;28;20063;-84
2021/12/09 03:51:39;;;;;;;98.05;32.95;;;;;;;-3.07;89.50;98321.25;8378597;28;20105;-86
2021/12/09 03:55:40;;;;;;;84.60;29.50;;;;;;;-3.02;89.34;98332.69;8393650;28;20067;-86
2021/12/09 03:59:42;;;;;;;99.90;31.90;;;;;;;-3.09;89.81;98342.63;8428497;28;20032;-84
2021/12/09 04:03:42;;;;;;;90.30;30.33;;;;;;;-3.09;89.52;98326.78;8430469;28;20048;-85
2021/12/09 04:07:43;;;;;;;88.00;31.10;;;;;;;-3.08;89.43;98317.81;8430723;28;20541;-86
2021/12/09 04:11:45;;;;;;;80.18;28.20;;;;;;;-3.02;89.41;98326.63;8430923;28;20071;-87
2021/12/09 04:15:46;;;;;;;89.15;30.52;;;;;;;-3.07;89.24;98324.66;8421386;28;20048;-85
2021/12/09 04:19:47;;;;;;;88.88;29.20;;;;;;;-3.09;89.37;98332.06;8412524;28;20051;-85
2021/12/09 04:23:48;;;;;;;81.88;29.00;;;;;;;-3.05;89.46;98343.72;8430738;28;20056;-84
2021/12/09 04:27:51;;;;;;;89.70;29.98;;;;;;;-2.97;89.17;98333.81;8429088;28;20052;-85
2021/12/09 04:31:52;;;;;;;83.53;28.83;;;;;;;-2.96;89.17;98338.06;8424110;28;20048;-86
2021/12/09 04:35:53;;;;;;;86.93;29.67;;;;;;;-3.03;89.38;98346.94;8430051;28;20731;-86
2021/12/09 04:39:54;;;;;;;98.25;31.33;;;;;;;-3.06;89.68;98342.13;8429856;28;20078;-86
2021/12/09 04:43:54;;;;;;;87.90;29.98;;;;;;;-3.08;89.40;98338.94;8428795;28;20450;-90
2021/12/09 04:47:56;;;;;;;88.60;31.90;;;;;;;-3.01;89.58;98344.84;8429777;28;20079;-87
2021/12/09 04:51:59;;;;;;;89.85;30.10;;;;;;;-2.95;89.29;98347.56;8433577;28;20040;-87
2021/12/09 04:56:01;;;;;;;90.05;31.98;;;;;;;-2.95;89.28;98355.50;8441479;28;20056;-89
2021/12/09 05:00:07;;;;;;;90.35;30.67;;;;;;;-2.94;89.20;98354.47;8440576;28;20134;-89
2021/12/09 05:04:07;;;;;;;90.10;30.88;;;;;;;-3.03;89.49;98362.78;8439530;28;20077;-87
2021/12/09 05:08:11;;;;;;;99.18;32.55;;;;;;;-2.93;89.18;98361.34;8439299;28;20370;-88
2021/12/09 05:12:12;;;;;;;94.25;30.88;;;;;;;-2.94;89.48;98349.19;8391608;28;20448;-91
2021/12/09 05:16:13;;;;;;;101.43;32.28;;;;;;;-2.89;89.43;98370.38;8397746;28;20049;-89
2021/12/09 05:20:14;;;;;;;95.53;33.72;;;;;;;-2.95;89.43;98366.06;8359075;28;20053;-87
2021/12/09 05:24:15;;;;;;;98.65;32.70;;;;;;;-3.02;89.66;98372.31;8370407;28;20073;-88
2021/12/09 05:28:17;;;;;;;107.50;33.65;;;;;;;-3.05;89.84;98362.22;8395593;28;20055;-86
2021/12/09 05:32:20;;;;;;;97.47;32.08;;;;;;;-2.96;89.83;98351.28;8404109;28;20056;-88
2021/12/09 05:36:21;;;;;;;98.32;33.15;;;;;;;-2.91;89.72;98351.34;8403100;28;20417;-86
2021/12/09 05:40:22;;;;;;;106.20;33.42;;;;;;;-2.90;89.43;98350.28;8401757;28;20086;-90
2021/12/09 05:44:23;;;;;;;99.68;31.73;;;;;;;-2.88;89.48;98353.50;8438379;28;20512;-88
2021/12/09 05:48:23;;;;;;;102.22;33.22;;;;;;;-2.92;89.42;98362.97;8387791;28;20063;-87
2021/12/09 05:52:24;;;;;;;95.93;32.75;;;;;;;-2.88;89.60;98369.34;8437638;28;20039;-87
2021/12/09 05:56:26;;;;;;;92.30;30.65;;;;;;;-2.88;89.36;98364.06;8438882;28;20489;-88
2021/12/09 06:00:27;;;;;;;103.97;33.05;;;;;;;-2.91;89.27;98356.63;8437628;28;20043;-87
2021/12/09 06:04:28;;;;;;;94.70;33.15;;;;;;;-2.96;89.71;98372.41;8433680;28;20573;-88
2021/12/09 06:08:29;;;;;;;104.50;34.55;;;;;;;-3.00;89.74;98362.31;8432343;28;20044;-86
2021/12/09 06:12:30;;;;;;;97.18;33.13;;;;;;;-2.97;89.76;98361.03;8432921;28;20493;-88
2021/12/09 06:16:31;;;;;;;87.57;27.75;;;;;;;-2.99;90.10;98363.91;8432881;28;20063;-90
2021/12/09 06:20:31;;;;;;;95.28;32.33;;;;;;;-2.96;89.92;98361.84;8433024;28;20123;-88
2021/12/09 06:24:32;;;;;;;92.47;32.10;;;;;;;-2.88;89.42;98353.50;8432961;28;20044;-87
2021/12/09 06:28:34;;;;;;;92.78;31.77;;;;;;;-2.90;89.39;98355.56;8432992;28;20125;-89
2021/12/09 06:32:35;;;;;;;100.80;31.48;;;;;;;-2.90;89.25;98364.31;8432994;28;20036;-89
2021/12/09 06:36:36;;;;;;;102.38;34.33;;;;;;;-3.05;89.77;98359.56;8432673;28;20064;-85
2021/12/09 06:40:37;;;;;;;101.55;32.88;;;;;;;-3.08;90.23;98369.84;8432147;28;20052;-86
2021/12/09 06:44:37;;;;;;;97.30;32.05;;;;;;;-3.12;90.37;98374.78;8432070;28;20051;-87
2021/12/09 06:48:39;;;;;;;94.97;32.22;;;;;;;-3.13;90.28;98375.84;8395913;28;20504;-85
2021/12/09 06:52:40;;;;;;;96.78;32.00;;;;;;;-3.14;90.44;98384.78;8393893;28;20102;-87
2021/12/09 06:56:41;;;;;;;97.47;32.00;;;;;;;-3.17;90.79;98387.88;8394027;28;20048;-89
2021/12/09 07:00:46;;;;;;;106.88;33.75;;;;;;;-3.12;90.61;98387.97;8377314;28;20467;-88
2021/12/09 07:04:47;;;;;;;102.57;32.55;;;;;;;-3.13;90.86;98404.88;8393860;28;20045;-88
2021/12/09 07:08:49;;;;;;;100.22;34.00;;;;;;;-3.17;91.14;98409.00;8393768;28;20610;-87
2021/12/09 07:12:51;;;;;;;108.15;34.80;;;;;;;-3.18;91.34;98407.44;8393411;28;20049;-88
2021/12/09 07:16:51;;;;;;;103.47;33.72;;;;;;;-3.15;91.40;98411.44;8392360;28;20052;-90
2021/12/09 07:20:58;;;;;;;106.25;35.40;;;;;;;-3.14;91.25;98424.41;8393630;28;20060;-89
2021/12/09 07:24:58;;;;;;;102.75;34.53;;;;;;;-3.15;91.31;98433.34;8430777;28;20086;-89
2021/12/09 07:29:00;;;;;;;102.95;34.20;;;;;;;-3.15;91.61;98443.91;8430477;28;20386;-86
2021/12/09 07:33:00;;;;;;;100.72;32.80;;;;;;;-3.18;91.35;98428.56;8361573;28;20104;-85
2021/12/09 07:37:04;;;;;;;118.10;38.17;;;;;;;-3.21;91.42;98431.66;8430040;28;20056;-86
2021/12/09 07:41:05;;;;;;;115.55;38.53;;;;;;;-3.14;91.66;98423.59;8430149;28;20059;-85
2021/12/09 07:45:08;;;;;;;110.05;36.92;;;;;;;-3.07;91.45;98414.47;8430077;28;20486;-83
2021/12/09 07:49:09;;;;;;;104.53;36.53;;;;;;;-3.06;91.41;98415.28;8428597;28;20047;-87
2021/12/09 07:53:10;;;;;;;106.88;36.42;;;;;;;-3.05;90.99;98422.16;8429624;28;20048;-86
2021/12/09 07:57:11;;;;;;;112.72;35.83;;;;;;;-3.05;91.32;98412.41;8428144;28;20177;-85
2021/12/09 08:01:12;;;;;;;116.90;36.35;;;;;;;-3.06;91.31;98416.09;8428117;28;20642;-89
2021/12/09 08:05:14;;;;;;;121.00;36.80;;;;;;;-3.09;91.58;98437.69;8429514;28;20055;-84
2021/12/09 08:09:15;;;;;;;116.85;36.80;;;;;;;-3.03;91.55;98435.94;8428864;28;20078;-87
2021/12/09 08:13:15;;;;;;;115.38;37.25;;;;;;;-2.93;91.22;98430.03;8428930;28;20158;-87
2021/12/09 08:21:38;;;;;;;127.55;39.05;;;;;;;-2.92;91.21;98434.28;8428931;28;20182;-84
2021/12/09 08:25:40;;;;;;;131.68;39.63;;;;;;;-2.91;91.29;98425.34;8428719;28;20074;-86
2021/12/09 08:29:41;;;;;;;113.28;36.00;;;;;;;-2.85;91.21;98416.44;8427220;28;20044;-87
2021/12/09 08:33:42;;;;;;;119.40;37.20;;;;;;;-2.69;90.68;98415.63;8428558;28;20043;-86
2021/12/09 08:37:44;;;;;;;117.30;38.15;;;;;;;-2.64;90.40;98423.66;8429668;28;20052;-85
2021/12/09 08:41:45;;;;;;;120.13;36.33;;;;;;;-2.58;90.46;98418.22;8429753;28;20051;-87
2021/12/09 08:45:47;;;;;;;116.30;37.10;;;;;;;-2.51;90.26;98407.47;8428731;28;20447;-88
2021/12/09 08:49:48;;;;;;;111.85;37.65;;;;;;;-2.40;90.02;98414.53;8427491;28;20044;-86
2021/12/09 08:53:48;;;;;;;114.43;37.33;;;;;;;-2.47;89.81;98427.09;8429387;28;20040;-90
2021/12/09 08:57:50;;;;;;;119.88;36.17;;;;;;;-2.50;89.57;98435.53;8377120;28;20081;-87
2021/12/09 09:01:51;;;;;;;111.85;36.60;;;;;;;-2.57;89.76;98434.88;8428431;28;20072;-89
2021/12/09 09:05:53;;;;;;;120.45;38.05;;;;;;;-2.56;90.06;98436.47;8392014;28;20054;-84
2021/12/09 09:09:54;;;;;;;117.57;36.97;;;;;;;-2.53;89.94;98430.69;8428048;28;20126;-88
2021/12/09 09:13:56;;;;;;;118.97;37.75;;;;;;;-2.50;90.11;98434.72;8428257;28;20143;-87
2021/12/09 09:17:58;;;;;;;123.38;38.47;;;;;;;-2.45;90.12;98432.97;8427963;28;20185;-84
2021/12/09 09:21:59;;;;;;;113.65;37.38;;;;;;;-2.40;90.10;98430.38;8392232;28;20052;-86
2021/12/09 09:26:00;;;;;;;108.32;34.92;;;;;;;-2.26;89.80;98415.78;8426337;28;20127;-89
2021/12/09 09:30:05;;;;;;;107.38;35.42;;;;;;;-2.16;89.49;98410.63;8419585;28;20435;-86
2021/12/09 09:34:06;;;;;;;105.97;33.55;;;;;;;-2.16;88.96;98405.34;8393109;28;20059;-87
2021/12/09 09:38:07;;;;;;;113.30;35.78;;;;;;;-2.00;88.64;98403.69;8396186;28;20044;-89
2021/12/09 09:46:12;;;;;;;104.35;34.33;;;;;;;-1.93;88.21;98387.66;8330104;28;20091;-89
2021/12/09 09:50:13;;;;;;;116.00;37.42;;;;;;;-1.79;87.73;98388.88;8313450;28;20049;-86
2021/12/09 09:54:14;;;;;;;125.28;39.10;;;;;;;-1.98;87.94;98392.88;8280514;28;20060;-85
2021/12/09 09:58:16;;;;;;;110.30;37.50;;;;;;;-2.00;88.12;98394.97;8329960;28;20049;-84
2021/12/09 10:02:17;;;;;;;99.25;35.13;;;;;;;-2.06;88.09;98395.97;8329500;28;20107;-87
2021/12/09 10:06:18;;;;;;;108.15;36.60;;;;;;;-2.00;88.15;98394.97;8329566;28;20061;-84
2021/12/09 10:10:20;;;;;;;108.95;36.58;;;;;;;-2.03;88.67;98398.13;8312824;28;20053;-87
2021/12/09 10:14:24;;;;;;;110.47;35.42;;;;;;;-1.99;88.58;98393.91;8363966;28;20068;-86
2021/12/09 10:18:43;;;;;;;120.82;36.28;;;;;;;-1.93;88.07;98382.38;8398348;28;20104;-88
2021/12/09 10:22:44;;;;;;;120.68;38.33;;;;;;;-1.83;87.90;98382.50;8398168;28;20059;-88
2021/12/09 10:26:47;;;;;;;135.48;43.00;;;;;;;-1.85;88.03;98381.94;8399084;28;20531;-84
2021/12/09 10:31:09;;;;;;;116.35;38.10;;;;;;;-1.75;88.11;98368.84;8397475;28;20394;-88
2021/12/09 10:35:19;;;;;;;112.68;37.13;;;;;;;-1.61;87.90;98385.94;8381286;28;20056;-86
2021/12/09 10:39:28;;;;;;;118.35;38.50;;;;;;;-1.46;87.62;98372.88;8397666;28;20101;-88
2021/12/09 10:43:29;;;;;;;116.03;38.97;;;;;;;-1.39;86.74;98378.78;8398742;28;20051;-89
2021/12/09 10:51:55;;;;;;;108.75;37.28;;;;;;;-1.44;86.95;98369.97;8397946;28;20041;-89
2021/12/09 10:56:01;;;;;;;115.63;38.60;;;;;;;-1.40;86.87;98361.28;8397049;28;20060;-86
2021/12/09 11:00:25;;;;;;;112.20;37.95;;;;;;;-1.46;86.84;98367.56;8379017;28;20052;-87
2021/12/09 11:04:25;;;;;;;117.13;39.53;;;;;;;-1.45;87.01;98342.69;8397971;28;20053;-85
2021/12/09 11:08:34;;;;;;;137.98;45.50;;;;;;;-1.33;86.70;98329.31;8397571;28;20532;-87
2021/12/09 11:12:35;;;;;;;129.00;44.17;;;;;;;-1.29;86.56;98341.78;8397540;28;20123;-86
2021/12/09 11:16:48;;;;;;;137.07;42.67;;;;;;;-1.29;86.76;98336.50;8398188;28;20043;-87
2021/12/09 11:20:49;;;;;;;189.07;51.88;;;;;;;-1.34;86.85;98339.09;8397043;28;20391;-86
2021/12/09 11:24:58;;;;;;;136.35;41.70;;;;;;;-1.30;86.79;98329.59;8397215;28;20044;-87
2021/12/09 11:29:05;;;;;;;144.77;43.15;;;;;;;-1.30;86.85;98334.09;8396866;28;20055;-85
2021/12/09 11:33:07;;;;;;;150.60;45.23;;;;;;;-1.29;86.98;98331.19;8396955;28;20057;-85
2021/12/09 11:37:36;;;;;;;117.05;39.90;;;;;;;-1.16;87.10;98329.19;8396760;28;20417;-86
2021/12/09 11:41:33;;;;;;;128.68;41.97;;;;;;;-0.98;86.38;98315.56;8396222;28;20048;-87
2021/12/09 11:45:37;;;;;;;107.25;37.72;;;;;;;-0.91;86.11;98321.44;8413294;28;20076;-86
2021/12/09 11:49:39;;;;;;;111.63;38.38;;;;;;;-1.05;86.30;98309.66;8377913;28;20086;-86
2021/12/09 11:53:43;;;;;;;113.47;38.80;;;;;;;-1.07;86.79;98301.19;8394903;28;20052;-85
2021/12/09 12:24:59;;;;;;;112.50;36.97;;;;;;;-0.90;85.60;98299.19;8358045;28;20049;-89
2021/12/09 12:42:11;;;;;;;118.88;39.60;;;;;;;-1.06;86.66;98305.44;8358034;28;20057;-85
2021/12/09 12:46:37;;;;;;;119.43;39.42;;;;;;;-1.04;86.52;98312.06;8357851;28;20045;-85
2021/12/09 12:50:39;;;;;;;116.30;38.53;;;;;;;-1.18;86.91;98315.38;8357346;28;20048;-86
2021/12/09 12:59:05;;;;;;;311.40;76.13;;;;;;;-1.25;87.13;98314.78;8394692;28;20482;-88
2021/12/09 13:03:17;;;;;;;251.98;62.83;;;;;;;-1.19;87.76;98321.72;8394648;28;20049;-84
2021/12/09 13:11:47;;;;;;;195.60;49.30;;;;;;;-1.13;87.71;98312.78;8395791;28;20102;-85
2021/12/09 13:16:20;;;;;;;189.27;50.35;;;;;;;-1.14;87.97;98319.13;8401256;28;20044;-87
2021/12/09 13:20:29;;;;;;;159.65;47.47;;;;;;;-1.20;88.13;98320.13;8401109;28;20044;-85
2021/12/09 13:24:53;;;;;;;196.85;49.72;;;;;;;-1.16;87.95;98318.59;8400998;28;20417;-86
2021/12/09 13:29:05;;;;;;;164.88;45.45;;;;;;;-1.11;88.10;98316.00;8399642;28;20441;-86
2021/12/09 13:33:39;;;;;;;188.40;49.55;;;;;;;-1.09;88.09;98313.88;8400523;28;20041;-88
2021/12/09 13:38:06;;;;;;;187.13;48.47;;;;;;;-1.04;87.58;98316.56;8400484;28;20056;-86
2021/12/09 13:55:25;;;;;;;134.25;43.35;;;;;;;-0.93;87.37;98319.03;8362611;28;20053;-85
2021/12/09 13:59:28;;;;;;;130.98;41.85;;;;;;;-1.06;87.75;98324.78;8362906;28;20585;-85
2021/12/09 14:03:29;;;;;;;135.45;41.95;;;;;;;-1.04;87.75;98319.22;8346291;28;20139;-87
2021/12/09 14:07:36;;;;;;;121.32;40.58;;;;;;;-0.93;87.58;98320.88;8362587;28;20131;-86
2021/12/09 14:11:42;;;;;;;131.25;43.85;;;;;;;-0.98;87.70;98320.84;8346482;28;20414;-85
2021/12/09 14:16:04;;;;;;;122.60;40.33;;;;;;;-0.95;87.84;98320.34;8345743;28;20095;-86
2021/12/09 14:20:16;;;;;;;154.48;47.83;;;;;;;-0.99;87.82;98313.94;8362495;28;20136;-88
2021/12/09 14:24:22;;;;;;;142.38;46.78;;;;;;;-1.01;88.07;98305.47;8361902;28;20120;-85
2021/12/09 14:28:23;;;;;;;133.45;42.92;;;;;;;-0.94;87.84;98300.72;8362334;28;20513;-86
2021/12/09 14:32:28;;;;;;;127.20;42.97;;;;;;;-0.94;87.81;98311.34;8388477;28;20044;-86
2021/12/09 14:36:31;;;;;;;128.75;43.10;;;;;;;-0.94;87.98;98295.44;8397996;28;20040;-88
2021/12/09 14:40:36;;;;;;;127.03;43.55;;;;;;;-0.93;88.03;98292.53;8398796;28;20512;-86
2021/12/09 14:44:39;;;;;;;127.70;42.10;;;;;;;-0.99;88.13;98287.44;8398402;28;20460;-88
2021/12/09 14:48:45;;;;;;;131.88;46.05;;;;;;;-0.99;88.07;98282.16;8400153;28;20529;-87
2021/12/09 14:52:46;;;;;;;129.38;42.45;;;;;;;-0.96;88.08;98276.34;8398260;28;20059;-87
2021/12/09 14:56:52;;;;;;;334.63;99.65;;;;;;;-0.94;88.38;98263.63;8399074;28;20044;-87
2021/12/09 15:01:03;;;;;;;227.07;67.47;;;;;;;-0.94;88.58;98271.59;8365190;28;20083;-86
2021/12/09 15:05:09;;;;;;;195.77;61.78;;;;;;;-0.91;88.61;98268.44;8401245;28;20044;-89
2021/12/09 15:09:16;;;;;;;142.88;47.15;;;;;;;-0.87;88.19;98264.22;8400126;28;20584;-89
2021/12/09 15:13:18;;;;;;;133.90;43.30;;;;;;;-0.85;88.27;98259.47;8398681;28;20048;-89
2021/12/09 15:17:21;;;;;;;150.90;44.55;;;;;;;-0.79;88.26;98266.38;8399382;28;20055;-88
2021/12/09 15:21:30;;;;;;;135.52;44.42;;;;;;;-0.79;88.34;98266.38;8398147;28;20039;-89
2021/12/09 15:25:33;;;;;;;125.55;42.13;;;;;;;-0.80;88.11;98270.09;8399473;28;20617;-89
2021/12/09 15:29:34;;;;;;;121.15;39.15;;;;;;;-0.82;88.66;98266.91;8397530;28;20067;-87
2021/12/09 15:33:47;;;;;;;127.95;41.50;;;;;;;-0.81;88.60;98268.50;8398811;28;20076;-88
2021/12/09 15:37:48;;;;;;;152.40;47.63;;;;;;;-0.80;88.28;98264.81;8395892;28;20468;-89
2021/12/09 15:41:52;;;;;;;122.68;39.63;;;;;;;-0.81;88.39;98263.19;8398033;28;20502;-85
2021/12/09 15:46:05;;;;;;;114.45;39.00;;;;;;;-0.84;88.56;98269.00;8397381;28;20059;-87
2021/12/09 15:50:09;;;;;;;117.45;39.95;;;;;;;-0.83;88.88;98275.09;8362324;28;20044;-88
2021/12/09 15:54:12;;;;;;;114.55;38.90;;;;;;;-0.84;88.82;98263.69;8379444;28;20053;-88
2021/12/09 15:58:14;;;;;;;115.13;39.28;;;;;;;-0.88;89.06;98270.56;8379241;28;20040;-87
2021/12/09 16:02:20;;;;;;;119.75;39.78;;;;;;;-0.90;89.00;98264.75;8396299;28;20056;-87
2021/12/09 16:06:21;;;;;;;112.40;38.53;;;;;;;-0.93;89.37;98265.22;8396700;28;20123;-85
2021/12/09 16:10:22;;;;;;;109.90;38.85;;;;;;;-0.90;89.07;98262.09;8396437;28;20040;-87
2021/12/09 16:14:25;;;;;;;117.82;39.10;;;;;;;-0.92;89.25;98256.22;8395700;28;20052;-86
2021/12/09 16:18:31;;;;;;;127.65;44.35;;;;;;;-0.95;89.52;98268.13;8396897;28;20477;-88
2021/12/09 16:22:32;;;;;;;128.77;44.03;;;;;;;-0.95;89.57;98267.31;8418166;28;20071;-88
2021/12/09 16:26:33;;;;;;;121.05;43.97;;;;;;;-0.93;89.47;98270.53;8430292;28;20134;-86
2021/12/09 16:30:34;;;;;;;121.05;41.53;;;;;;;-0.92;89.28;98272.13;8430032;28;20429;-88
2021/12/09 16:34:36;;;;;;;123.53;42.05;;;;;;;-0.93;89.39;98286.44;8430367;28;20048;-85
2021/12/09 16:38:39;;;;;;;132.27;43.42;;;;;;;-1.03;89.77;98281.06;8429360;28;20080;-89
2021/12/09 16:42:42;;;;;;;130.30;44.53;;;;;;;-1.10;90.62;98285.75;8427355;28;20417;-89
2021/12/09 16:46:45;;;;;;;160.50;51.35;;;;;;;-1.24;91.47;98289.91;8423628;28;20079;-84
2021/12/09 16:50:48;;;;;;;227.85;60.63;;;;;;;-1.27;91.55;98297.28;8390852;28;20060;-87
2021/12/09 16:54:52;;;;;;;491.35;102.60;;;;;;;-1.21;91.50;98303.44;8375938;28;20052;-87
2021/12/09 16:58:58;;;;;;;348.25;77.18;;;;;;;-1.30;91.92;98303.09;8385121;28;20052;-88
2021/12/09 17:03:01;;;;;;;326.40;70.28;;;;;;;-1.34;92.87;98312.59;8361049;28;20094;-88
2021/12/09 17:07:03;;;;;;;225.50;58.92;;;;;;;-1.35;92.60;98305.69;8368367;28;20056;-88
2021/12/09 17:11:04;;;;;;;184.07;53.20;;;;;;;-1.37;92.89;98304.34;8374092;28;20069;-88
2021/12/09 17:15:09;;;;;;;315.75;72.13;;;;;;;-1.42;93.23;98299.81;8390451;28;20060;-84
2021/12/09 17:19:11;;;;;;;221.98;57.47;;;;;;;-1.40;93.69;98297.72;8390418;28;20044;-87
2021/12/09 17:23:32;;;;;;;203.30;54.35;;;;;;;-1.35;93.23;98295.09;8332193;28;20058;-90
2021/12/09 17:27:33;;;;;;;161.70;48.67;;;;;;;-1.27;93.04;98279.81;8326909;28;20091;-89
2021/12/09 17:31:46;;;;;;;156.13;47.72;;;;;;;-1.18;92.22;98283.59;8356202;28;20127;-88
2021/12/09 17:35:50;;;;;;;160.95;47.60;;;;;;;-1.13;92.46;98280.97;8342055;28;20065;-87
2021/12/09 17:39:51;;;;;;;167.95;51.22;;;;;;;-1.15;92.18;98277.78;8362886;28;20144;-88
2021/12/09 17:43:52;;;;;;;195.32;54.80;;;;;;;-1.10;91.95;98280.47;8393334;28;20048;-89
2021/12/09 17:47:56;;;;;;;159.93;49.22;;;;;;;-1.09;92.10;98276.78;8399035;28;20123;-89
2021/12/09 17:52:23;;;;;;;170.55;51.83;;;;;;;-1.16;92.10;98276.22;8427700;28;20056;-87
2021/12/09 17:56:22;;;;;;;165.25;50.00;;;;;;;-1.14;92.17;98263.47;8425365;28;20458;-91
2021/12/09 18:00:31;;;;;;;156.90;48.50;;;;;;;-1.10;91.94;98264.56;8432059;28;20047;-87
2021/12/09 18:04:32;;;;;;;183.75;56.90;;;;;;;-1.11;91.73;98268.28;8399050;28;20067;-88
2021/12/09 18:08:35;;;;;;;163.00;54.08;;;;;;;-1.17;92.19;98264.00;8435106;28;20048;-88
2021/12/09 18:12:37;;;;;;;161.57;52.50;;;;;;;-1.19;92.64;98261.59;8398159;28;20497;-86
2021/12/09 18:16:42;;;;;;;179.57;53.42;;;;;;;-1.24;92.87;98258.09;8426014;28;20056;-85
2021/12/09 18:20:43;;;;;;;159.73;50.80;;;;;;;-1.22;92.50;98248.06;8432846;28;20048;-84
2021/12/09 18:24:44;;;;;;;151.15;50.60;;;;;;;-1.22;93.08;98242.78;8433240;28;20052;-86
2021/12/09 18:28:46;;;;;;;154.00;51.13;;;;;;;-1.15;92.16;98245.97;8432876;28;20497;-86
2021/12/09 18:32:47;;;;;;;154.43;51.92;;;;;;;-1.11;92.12;98252.41;8397195;28;20074;-84
2021/12/09 18:36:52;;;;;;;157.32;51.67;;;;;;;-1.08;92.01;98251.88;8432679;28;20150;-86
2021/12/09 18:40:58;;;;;;;153.65;48.95;;;;;;;-1.05;92.07;98240.75;8431224;28;20059;-85
2021/12/09 18:45:02;;;;;;;138.85;46.20;;;;;;;-1.01;91.82;98247.16;8432444;28;20047;-87
2021/12/09 18:49:03;;;;;;;137.43;42.88;;;;;;;-0.99;91.55;98245.03;8433166;28;20047;-90
2021/12/09 18:53:06;;;;;;;134.57;43.33;;;;;;;-0.97;91.64;98253.56;8431507;28;20044;-88
2021/12/09 18:57:08;;;;;;;125.05;42.97;;;;;;;-0.95;91.43;98246.13;8430820;28;20060;-87
2021/12/09 19:01:09;;;;;;;131.98;42.58;;;;;;;-0.94;91.85;98239.78;8408902;28;20130;-86
2021/12/09 19:05:12;;;;;;;131.10;44.70;;;;;;;-0.91;91.35;98249.88;8417498;28;20135;-87
2021/12/09 19:09:14;;;;;;;127.93;43.15;;;;;;;-0.92;91.11;98250.94;8422338;28;20048;-85
2021/12/09 19:13:37;;;;;;;135.68;43.17;;;;;;;-0.93;91.35;98244.03;8414555;28;20044;-90
2021/12/09 19:21:44;;;;;;;133.60;42.22;;;;;;;-0.93;91.28;98249.31;8361101;28;20532;-89
2021/12/09 19:25:45;;;;;;;131.80;41.58;;;;;;;-0.97;91.59;98242.94;8404668;28;20044;-88
2021/12/09 19:29:46;;;;;;;145.88;48.58;;;;;;;-0.96;91.36;98239.25;8399108;28;20106;-88
2021/12/09 19:33:47;;;;;;;145.23;45.05;;;;;;;-0.98;91.20;98236.03;8401085;28;20040;-89
2021/12/09 19:37:49;;;;;;;147.25;46.92;;;;;;;-0.96;91.54;98240.06;8427810;28;20043;-90
2021/12/09 19:41:51;;;;;;;146.45;45.05;;;;;;;-0.94;91.37;98237.13;8417315;28;20131;-89
2021/12/09 19:45:52;;;;;;;128.90;44.20;;;;;;;-0.95;91.28;98230.22;8426441;28;20241;-86
2021/12/09 19:49:54;;;;;;;137.55;43.13;;;;;;;-0.94;91.21;98237.13;8359816;28;20056;-86
2021/12/09 19:53:55;;;;;;;137.05;44.20;;;;;;;-0.92;91.37;98230.53;8426288;28;20133;-86